Time;durP1;ratioP1;P1;durP2;ratioP2;P2;SDS_P1;SDS_P2;PMS_P1;PMS_P2;Temp;Humidity;BMP_temperature;BMP_pressure;BME280_temperature;BME280_humidity;BME280_pressure;Samples;Min_cycle;Max_cycle;Signal;HPM_P1;HPM_P2
2022/02/11 00:00:02;;;;;;;3.38;2.65;;;24.60;61.50;;;;;;5049709;28;20196;-50
2022/02/11 00:05:34;;;;;;;3.80;2.47;;;24.70;61.60;;;;;;5034966;28;20257;-43
2022/02/11 00:08:07;;;;;;;3.28;2.88;;;24.70;61.50;;;;;;5060698;22;20219;-56
2022/02/11 00:10:38;;;;;;;2.92;2.35;;;24.70;61.40;;;;;;5048222;28;20245;-58
2022/02/11 00:13:09;;;;;;;2.92;2.65;;;24.80;61.30;;;;;;5048755;28;20253;-57
2022/02/11 00:15:42;;;;;;;3.13;2.38;;;24.80;61.30;;;;;;5050298;28;20203;-57
2022/02/11 00:18:14;;;;;;;3.03;2.70;;;24.80;61.20;;;;;;5069741;28;20194;-58
2022/02/11 00:20:49;;;;;;;2.78;2.58;;;24.80;61.20;;;;;;5069553;28;20240;-56
2022/02/11 00:23:22;;;;;;;2.55;2.35;;;24.90;61.10;;;;;;5069162;28;20264;-56
2022/02/11 00:25:58;;;;;;;2.88;2.63;;;24.90;61.10;;;;;;5068424;28;20210;-57
2022/02/11 00:29:30;;;;;;;3.92;3.13;;;24.90;61.00;;;;;;5068653;28;20209;-56
2022/02/11 00:31:57;;;;;;;4.13;2.38;;;25.00;61.10;;;;;;5068326;28;20199;-56
2022/02/11 00:34:35;;;;;;;2.78;2.28;;;25.00;60.80;;;;;;5068450;28;20688;-56
2022/02/11 00:37:12;;;;;;;3.42;2.75;;;25.10;60.70;;;;;;5069139;28;20242;-57
2022/02/11 00:40:10;;;;;;;4.13;3.00;;;25.10;60.70;;;;;;5067650;28;20682;-55
2022/02/11 01:02:20;;;;;;;3.10;2.90;;;25.30;60.90;;;;;;5068564;28;20332;-62
2022/02/11 01:04:51;;;;;;;3.05;2.85;;;25.30;60.80;;;;;;5068395;28;20226;-56
2022/02/11 01:07:22;;;;;;;2.80;2.60;;;25.30;60.80;;;;;;5068238;28;20586;-58
2022/02/11 01:09:52;;;;;;;3.38;3.03;;;25.30;60.80;;;;;;5068820;28;20191;-57
2022/02/11 01:12:25;;;;;;;2.75;2.55;;;25.40;60.80;;;;;;5067019;28;20194;-55
2022/02/11 01:14:56;;;;;;;4.15;2.95;;;25.40;60.70;;;;;;5067429;28;20625;-56
2022/02/11 01:17:33;;;;;;;3.00;2.75;;;25.40;60.70;;;;;;5068113;28;20276;-55
2022/02/11 01:20:09;;;;;;;3.08;2.78;;;25.50;60.60;;;;;;5064765;28;20195;-56
2022/02/11 01:23:01;;;;;;;3.42;3.13;;;25.50;60.50;;;;;;5068387;28;20201;-57
2022/02/11 01:25:55;;;;;;;3.30;3.03;;;25.50;60.50;;;;;;5068062;28;20729;-57
2022/02/11 01:28:40;;;;;;;2.85;2.65;;;25.50;60.40;;;;;;5068671;28;20190;-57
2022/02/11 01:31:21;;;;;;;3.08;2.88;;;25.50;60.30;;;;;;5068128;28;20593;-56
2022/02/11 01:36:54;;;;;;;3.33;2.85;;;25.60;60.10;;;;;;5067238;28;20207;-57
2022/02/11 01:48:04;;;;;;;4.75;3.40;;;25.60;59.90;;;;;;5068455;28;20214;-57
2022/02/11 01:53:30;;;;;;;3.20;3.00;;;25.70;60.00;;;;;;5067280;28;20194;-58
2022/02/11 01:56:20;;;;;;;3.10;2.90;;;25.70;59.90;;;;;;5067835;28;21483;-57
2022/02/11 02:02:19;;;;;;;3.65;3.35;;;25.80;59.90;;;;;;5067328;28;20199;-59
2022/02/11 02:22:18;;;;;;;3.28;2.97;;;25.90;59.50;;;;;;5042754;28;20187;-58
2022/02/11 02:24:57;;;;;;;3.80;3.50;;;25.90;59.40;;;;;;5067709;28;20218;-57
2022/02/11 02:27:46;;;;;;;3.80;3.50;;;25.90;59.30;;;;;;5067720;28;20692;-56
2022/02/11 02:33:52;;;;;;;4.28;3.88;;;26.00;59.40;;;;;;5071978;28;20210;-56
2022/02/11 02:36:52;;;;;;;4.15;3.85;;;26.00;59.40;;;;;;5070729;28;20237;-58
2022/02/11 02:56:36;;;;;;;4.20;3.75;;;26.10;59.30;;;;;;5071135;28;20795;-57
2022/02/11 02:59:22;;;;;;;4.07;3.78;;;26.20;59.20;;;;;;5071157;28;20560;-57
2022/02/11 03:01:59;;;;;;;4.38;4.07;;;26.20;59.70;;;;;;5070900;28;20203;-57
2022/02/11 03:35:28;;;;;;;4.80;4.38;;;26.30;58.80;;;;;;5070608;28;20577;-58
2022/02/11 03:48:50;;;;;;;5.32;4.82;;;26.40;58.70;;;;;;5069502;28;20194;-57
2022/02/11 03:49:37;;;;;;;7.07;5.13;;;26.40;58.50;;;;;;5070262;28;20282;-57
2022/02/11 03:52:28;;;;;;;5.97;5.03;;;26.40;58.40;;;;;;5070217;28;20197;-56
2022/02/11 03:58:18;;;;;;;8.57;5.22;;;26.50;58.30;;;;;;5024924;28;20607;-57
2022/02/11 04:23:50;;;;;;;5.45;4.95;;;26.50;57.90;;;;;;5069030;28;20197;-56
2022/02/11 04:27:23;;;;;;;5.80;5.20;;;26.50;57.80;;;;;;5069043;28;20215;-56
2022/02/11 05:00:04;;;;;;;5.07;4.50;;;26.50;57.50;;;;;;5068494;28;20557;-56
2022/02/11 05:02:35;;;;;;;5.25;4.75;;;26.40;57.40;;;;;;5068495;28;20195;-57
2022/02/11 05:05:06;;;;;;;6.22;5.15;;;26.40;57.40;;;;;;5068512;28;20226;-57
2022/02/11 05:07:37;;;;;;;4.53;4.13;;;26.40;57.50;;;;;;5068079;28;20214;-56
2022/02/11 05:10:09;;;;;;;5.28;4.40;;;26.40;57.40;;;;;;5068358;28;20191;-59
2022/02/11 05:12:42;;;;;;;4.22;3.92;;;26.40;57.40;;;;;;5067591;28;20191;-58
2022/02/11 05:15:15;;;;;;;4.32;3.92;;;26.40;57.40;;;;;;5067388;28;20202;-57
2022/02/11 05:17:50;;;;;;;5.10;4.60;;;26.40;57.40;;;;;;5067955;28;20211;-57
2022/02/11 05:20:21;;;;;;;4.25;3.85;;;26.40;57.30;;;;;;5067558;28;20209;-57
2022/02/11 05:22:51;;;;;;;4.72;3.80;;;26.30;57.20;;;;;;5068681;28;20264;-58
2022/02/11 05:25:22;;;;;;;5.13;4.32;;;26.30;57.40;;;;;;5068319;28;20230;-57
2022/02/11 05:27:54;;;;;;;4.22;3.92;;;26.30;57.40;;;;;;5068237;28;20283;-57
2022/02/11 05:30:25;;;;;;;5.60;4.05;;;26.30;57.30;;;;;;5068018;28;20207;-57
2022/02/11 05:32:56;;;;;;;4.28;3.88;;;26.30;57.30;;;;;;5067912;28;20191;-57
2022/02/11 05:35:26;;;;;;;4.88;3.80;;;26.30;57.30;;;;;;5067639;28;20194;-56
2022/02/11 05:37:57;;;;;;;4.50;3.70;;;26.20;57.20;;;;;;5068339;28;20217;-57
2022/02/11 05:40:28;;;;;;;4.18;3.75;;;26.20;57.20;;;;;;5068357;28;20187;-56
2022/02/11 05:43:00;;;;;;;4.50;4.15;;;26.20;57.30;;;;;;5068508;28;20195;-57
2022/02/11 05:45:31;;;;;;;4.10;3.80;;;26.20;57.30;;;;;;5067582;28;20272;-56
2022/02/11 05:48:02;;;;;;;4.25;3.85;;;26.20;57.20;;;;;;5068266;28;20244;-57
2022/02/11 05:50:32;;;;;;;4.07;3.67;;;26.20;57.20;;;;;;5067433;28;20308;-56
2022/02/11 05:53:03;;;;;;;3.58;3.28;;;26.10;57.30;;;;;;5068101;28;20190;-58
2022/02/11 05:55:34;;;;;;;4.57;4.18;;;26.10;57.30;;;;;;5068074;28;20674;-57
2022/02/11 05:58:09;;;;;;;4.30;3.78;;;26.10;57.30;;;;;;5067548;28;20187;-58
2022/02/11 06:00:39;;;;;;;5.57;4.07;;;26.10;57.30;;;;;;5068165;28;20604;-57
2022/02/11 06:03:10;;;;;;;4.03;3.80;;;26.10;57.40;;;;;;5067974;28;20195;-57
2022/02/11 06:05:40;;;;;;;3.65;3.35;;;26.00;57.40;;;;;;5070156;28;20926;-57
2022/02/11 06:08:11;;;;;;;4.18;3.67;;;26.00;57.40;;;;;;5071160;28;20214;-56
2022/02/11 06:10:42;;;;;;;3.65;3.35;;;26.00;57.40;;;;;;5071603;28;20187;-56
2022/02/11 06:13:14;;;;;;;3.95;3.65;;;26.00;57.40;;;;;;5071696;28;20195;-57
2022/02/11 06:15:46;;;;;;;3.80;3.50;;;26.00;57.40;;;;;;5071057;28;20272;-57
2022/02/11 06:18:17;;;;;;;3.78;3.47;;;26.00;57.40;;;;;;5071681;28;20199;-57
2022/02/11 06:20:47;;;;;;;4.05;3.65;;;26.00;57.50;;;;;;5071606;28;20225;-58
2022/02/11 06:23:18;;;;;;;3.90;3.60;;;26.00;57.40;;;;;;5070851;28;20678;-57
2022/02/11 06:25:49;;;;;;;3.92;3.63;;;25.90;57.30;;;;;;5070916;28;20284;-58
2022/02/11 06:28:21;;;;;;;3.80;3.50;;;25.90;57.30;;;;;;5070815;28;20747;-57
2022/02/11 06:30:52;;;;;;;3.60;3.30;;;25.90;57.20;;;;;;5069683;28;20195;-57
2022/02/11 06:33:22;;;;;;;3.55;3.35;;;25.80;57.30;;;;;;5071373;28;20195;-58
2022/02/11 06:35:56;;;;;;;3.42;3.20;;;25.80;57.30;;;;;;5071105;28;20264;-57
2022/02/11 06:38:27;;;;;;;3.50;3.20;;;25.80;57.30;;;;;;5071596;28;20203;-58
2022/02/11 06:40:58;;;;;;;3.15;2.90;;;25.80;57.40;;;;;;5070977;28;20244;-59
2022/02/11 06:43:30;;;;;;;3.38;3.05;;;25.80;57.40;;;;;;5071253;28;20202;-57
2022/02/11 06:46:01;;;;;;;3.63;3.03;;;25.80;57.40;;;;;;5071274;28;21542;-58
2022/02/11 06:48:32;;;;;;;3.20;2.97;;;25.70;57.40;;;;;;5071072;28;20279;-56
2022/02/11 06:51:03;;;;;;;3.15;2.85;;;25.70;57.40;;;;;;5071464;28;20195;-59
2022/02/11 06:53:33;;;;;;;4.13;3.08;;;25.70;57.50;;;;;;5071258;28;20272;-56
2022/02/11 06:56:04;;;;;;;4.00;3.13;;;25.70;57.50;;;;;;5070941;28;20219;-57
2022/02/11 06:58:37;;;;;;;3.47;3.20;;;25.70;57.60;;;;;;5070979;28;20191;-57
2022/02/11 07:01:07;;;;;;;3.42;3.13;;;25.70;57.60;;;;;;5071304;28;20194;-57
2022/02/11 07:03:39;;;;;;;3.60;3.25;;;25.60;57.50;;;;;;5070712;28;20195;-57
2022/02/11 07:06:09;;;;;;;3.40;2.92;;;25.60;57.50;;;;;;5070246;28;20268;-59
2022/02/11 07:08:40;;;;;;;3.65;2.90;;;25.60;57.50;;;;;;5071115;28;20214;-56
2022/02/11 07:11:11;;;;;;;3.55;3.25;;;25.60;57.60;;;;;;5069535;28;20276;-58
2022/02/11 07:13:44;;;;;;;3.17;2.88;;;25.50;57.40;;;;;;5069959;28;20282;-57
2022/02/11 07:16:15;;;;;;;3.50;3.13;;;25.50;57.40;;;;;;5069799;28;20223;-57
2022/02/11 07:18:47;;;;;;;3.85;3.28;;;25.50;57.40;;;;;;5071242;28;20194;-57
2022/02/11 07:21:17;;;;;;;3.35;3.08;;;25.50;57.40;;;;;;5070361;28;20203;-57
2022/02/11 07:23:48;;;;;;;3.47;3.17;;;25.50;57.50;;;;;;5071223;28;20206;-57
2022/02/11 07:26:19;;;;;;;2.95;2.70;;;25.50;57.50;;;;;;5069736;28;20219;-57
2022/02/11 07:28:52;;;;;;;3.28;3.08;;;25.40;57.50;;;;;;5070956;28;20194;-58
2022/02/11 07:31:22;;;;;;;4.25;3.10;;;25.40;57.50;;;;;;5071595;28;20248;-56
2022/02/11 07:33:53;;;;;;;3.70;3.40;;;25.40;57.50;;;;;;5071876;28;20194;-57
2022/02/11 07:36:23;;;;;;;3.50;3.20;;;25.40;57.50;;;;;;5070906;28;20218;-58
2022/02/11 07:38:54;;;;;;;3.03;2.80;;;25.30;57.50;;;;;;5071368;28;20198;-57
2022/02/11 07:41:24;;;;;;;3.85;3.50;;;25.30;57.50;;;;;;5071592;28;20195;-57
2022/02/11 07:43:57;;;;;;;4.15;3.65;;;25.30;57.60;;;;;;5070102;28;20241;-57
2022/02/11 07:46:28;;;;;;;3.63;3.33;;;25.30;57.50;;;;;;5070824;28;20283;-58
2022/02/11 07:48:59;;;;;;;3.88;3.30;;;25.30;57.60;;;;;;5070962;28;20278;-57
2022/02/11 07:51:30;;;;;;;3.55;3.25;;;25.30;57.60;;;;;;5070666;28;20195;-57
2022/02/11 07:54:01;;;;;;;3.20;3.00;;;25.20;57.60;;;;;;5065785;28;20237;-58
2022/02/11 07:56:31;;;;;;;3.33;3.03;;;25.20;57.60;;;;;;5069177;28;20682;-57
2022/02/11 07:59:04;;;;;;;3.05;2.85;;;25.20;57.70;;;;;;5066413;28;20248;-58
2022/02/11 08:01:34;;;;;;;3.30;3.08;;;25.20;57.60;;;;;;5069730;28;20655;-59
2022/02/11 08:04:05;;;;;;;4.40;3.38;;;25.20;57.60;;;;;;5069984;28;20661;-58
2022/02/11 08:06:36;;;;;;;3.60;3.05;;;25.10;57.60;;;;;;5068848;28;20235;-59
2022/02/11 08:09:07;;;;;;;3.92;3.17;;;25.20;57.70;;;;;;5070194;28;20545;-57
2022/02/11 08:11:37;;;;;;;3.67;3.38;;;25.10;57.60;;;;;;5069521;28;20280;-59
2022/02/11 08:14:10;;;;;;;3.58;3.28;;;25.10;57.60;;;;;;5068417;28;20194;-61
2022/02/11 08:16:40;;;;;;;3.40;3.10;;;25.10;57.70;;;;;;5069124;28;20593;-59
2022/02/11 08:19:11;;;;;;;3.50;3.30;;;25.10;57.70;;;;;;5069034;28;20190;-61
2022/02/11 08:21:42;;;;;;;3.20;3.00;;;25.00;57.60;;;;;;5068127;28;20267;-58
2022/02/11 08:24:13;;;;;;;3.60;3.30;;;25.00;57.70;;;;;;5068921;28;20207;-58
2022/02/11 08:26:45;;;;;;;3.33;3.03;;;25.00;57.70;;;;;;5069206;28;20275;-60
2022/02/11 08:29:21;;;;;;;3.35;3.05;;;25.00;57.70;;;;;;5068742;28;20195;-59
2022/02/11 08:31:51;;;;;;;3.25;3.05;;;24.90;57.70;;;;;;5067789;28;20281;-57
2022/02/11 08:34:22;;;;;;;3.45;3.15;;;24.90;57.80;;;;;;5069268;28;20195;-59
2022/02/11 08:36:53;;;;;;;3.70;3.40;;;24.90;58.40;;;;;;5067648;28;20229;-59
2022/02/11 08:39:23;;;;;;;3.20;3.00;;;24.90;57.90;;;;;;5069644;28;20199;-58
2022/02/11 08:41:54;;;;;;;3.80;3.60;;;24.90;57.90;;;;;;5069468;28;20198;-58
2022/02/11 08:44:26;;;;;;;3.67;3.38;;;24.90;57.90;;;;;;5068848;28;20191;-59
2022/02/11 08:46:57;;;;;;;3.20;2.90;;;24.90;57.90;;;;;;5068233;28;20308;-61
2022/02/11 08:49:28;;;;;;;3.00;2.80;;;24.80;57.80;;;;;;5067167;28;20199;-60
2022/02/11 08:51:58;;;;;;;3.83;3.53;;;24.80;57.80;;;;;;5067426;28;20268;-61
2022/02/11 08:54:29;;;;;;;3.30;3.10;;;24.80;57.90;;;;;;5067432;28;20240;-61
2022/02/11 08:56:59;;;;;;;3.55;3.25;;;24.80;57.90;;;;;;5065332;28;20219;-57
2022/02/11 08:59:34;;;;;;;3.28;2.97;;;24.80;57.90;;;;;;5068443;28;20191;-57
2022/02/11 09:02:11;;;;;;;3.28;3.03;;;24.70;57.80;;;;;;5067242;28;20194;-61
2022/02/11 09:04:41;;;;;;;3.05;2.80;;;24.70;57.90;;;;;;5068067;28;20639;-60
2022/02/11 09:09:43;;;;;;;3.53;3.25;;;24.70;57.90;;;;;;5026441;28;20220;-45
2022/02/11 09:12:14;;;;;;;3.97;3.58;;;24.70;57.90;;;;;;5027905;28;20200;-43
2022/02/11 09:14:46;;;;;;;3.17;2.88;;;24.70;58.00;;;;;;5027081;28;20192;-43
2022/02/11 09:17:17;;;;;;;3.75;3.40;;;24.70;58.00;;;;;;5025616;28;20625;-43
2022/02/11 09:19:50;;;;;;;3.25;3.05;;;24.60;58.00;;;;;;5025630;28;20192;-44
2022/02/11 09:22:21;;;;;;;3.22;2.92;;;24.60;57.90;;;;;;5027840;28;20204;-42
2022/02/11 09:24:54;;;;;;;3.35;3.05;;;24.60;58.00;;;;;;5027948;28;20203;-45
2022/02/11 09:27:25;;;;;;;3.50;3.20;;;24.60;58.00;;;;;;5028275;28;20286;-45
2022/02/11 09:29:57;;;;;;;3.55;3.25;;;24.60;58.00;;;;;;5027408;28;20200;-51
2022/02/11 09:32:29;;;;;;;3.55;3.00;;;24.60;58.00;;;;;;5026881;28;20218;-44
2022/02/11 09:35:00;;;;;;;2.97;2.78;;;24.60;58.00;;;;;;5027469;28;20200;-44
2022/02/11 09:37:31;;;;;;;3.22;3.00;;;24.60;58.00;;;;;;5027117;28;20220;-42
2022/02/11 09:40:01;;;;;;;3.25;3.05;;;24.50;58.00;;;;;;5025648;28;20188;-47
2022/02/11 09:42:32;;;;;;;3.50;3.17;;;24.50;58.00;;;;;;5027105;28;20200;-43
2022/02/11 09:45:06;;;;;;;3.20;3.00;;;24.50;58.00;;;;;;5027584;28;20286;-42
2022/02/11 09:47:37;;;;;;;3.00;2.80;;;24.50;58.00;;;;;;5024016;28;20707;-41
2022/02/11 09:50:08;;;;;;;3.35;2.95;;;24.50;58.10;;;;;;5028536;28;20204;-48
2022/02/11 09:52:41;;;;;;;3.45;3.15;;;24.50;58.10;;;;;;5030311;28;20698;-42
2022/02/11 09:58:00;;;;;;;3.03;2.83;;;24.50;58.10;;;;;;5029948;28;20199;-43
2022/02/11 10:00:34;;;;;;;3.45;3.15;;;24.40;58.10;;;;;;5029483;28;20195;-42
2022/02/11 10:03:07;;;;;;;2.90;2.70;;;24.40;58.10;;;;;;5029607;28;20225;-44
2022/02/11 10:05:38;;;;;;;2.97;2.78;;;24.40;58.10;;;;;;5029322;28;20252;-47
2022/02/11 10:08:08;;;;;;;3.05;2.85;;;24.40;58.10;;;;;;5035007;22;20223;-58
2022/02/11 10:10:42;;;;;;;3.10;2.90;;;24.40;58.10;;;;;;5049050;28;20241;-59
2022/02/11 10:13:14;;;;;;;3.20;2.90;;;24.40;58.10;;;;;;5049369;28;20275;-57
2022/02/11 10:15:49;;;;;;;3.35;3.05;;;24.30;58.10;;;;;;5048219;28;20250;-58
2022/02/11 10:18:25;;;;;;;3.17;2.97;;;24.30;58.10;;;;;;5027289;28;20286;-56
2022/02/11 10:21:00;;;;;;;2.95;2.75;;;24.30;58.10;;;;;;5028076;28;20353;-56
2022/02/11 10:23:32;;;;;;;3.45;3.15;;;24.30;58.10;;;;;;5029030;28;20191;-56
2022/02/11 10:26:08;;;;;;;3.05;2.85;;;24.30;58.20;;;;;;5029304;28;20235;-58
2022/02/11 10:28:40;;;;;;;3.17;2.97;;;24.30;58.10;;;;;;5029437;28;20760;-58
2022/02/11 10:31:22;;;;;;;2.85;2.65;;;24.30;58.10;;;;;;5024539;28;20243;-59
2022/02/11 10:34:03;;;;;;;2.78;2.58;;;24.20;58.10;;;;;;5009899;28;20201;-59
2022/02/11 10:36:35;;;;;;;2.92;2.72;;;24.30;58.00;;;;;;5014480;28;20216;-57
2022/02/11 10:39:12;;;;;;;3.15;2.95;;;24.20;58.00;;;;;;5028735;28;20212;-57
2022/02/11 10:41:44;;;;;;;3.40;2.90;;;24.20;58.10;;;;;;5026426;28;20713;-57
2022/02/11 10:44:16;;;;;;;3.42;3.13;;;24.20;58.10;;;;;;5017670;28;20193;-58
2022/02/11 10:46:55;;;;;;;2.88;2.67;;;24.20;58.20;;;;;;5033524;28;20227;-56
2022/02/11 10:49:34;;;;;;;3.08;2.67;;;24.20;58.20;;;;;;5048624;28;20199;-57
2022/02/11 10:52:15;;;;;;;2.70;2.50;;;24.20;58.10;;;;;;5041501;28;20210;-57
2022/02/11 10:54:49;;;;;;;2.90;2.70;;;24.10;58.10;;;;;;5032265;28;20200;-58
2022/02/11 10:57:20;;;;;;;3.00;2.80;;;24.10;58.10;;;;;;5032512;28;20252;-58
2022/02/11 10:59:52;;;;;;;2.85;2.65;;;24.10;58.10;;;;;;5032566;28;20200;-56
2022/02/11 11:02:26;;;;;;;3.25;2.95;;;24.10;58.10;;;;;;5032461;28;20201;-56
2022/02/11 11:04:58;;;;;;;2.70;2.50;;;24.10;58.20;;;;;;5032508;28;20652;-56
2022/02/11 11:07:30;;;;;;;3.20;2.85;;;24.10;58.20;;;;;;5032119;28;20227;-57
2022/02/11 11:10:00;;;;;;;3.00;2.67;;;24.00;58.20;;;;;;5032118;28;20270;-58
2022/02/11 11:12:32;;;;;;;2.97;2.78;;;24.00;58.20;;;;;;5032163;28;20250;-57
2022/02/11 11:15:05;;;;;;;2.88;2.67;;;24.00;58.20;;;;;;5032014;28;20200;-61
2022/02/11 11:17:41;;;;;;;2.83;2.63;;;24.00;58.20;;;;;;5050939;28;20243;-56
2022/02/11 11:20:13;;;;;;;2.90;2.70;;;24.00;58.20;;;;;;5052115;28;20199;-58
2022/02/11 11:22:48;;;;;;;2.80;2.60;;;24.00;58.20;;;;;;5037518;28;20192;-57
2022/02/11 11:25:19;;;;;;;3.30;3.00;;;24.00;58.20;;;;;;5032121;28;20655;-56
2022/02/11 11:27:53;;;;;;;3.05;2.85;;;24.00;58.20;;;;;;5032184;28;20228;-58
2022/02/11 11:30:29;;;;;;;3.30;3.00;;;24.00;58.20;;;;;;5031656;28;20196;-57
2022/02/11 11:33:25;;;;;;;2.83;2.63;;;23.90;58.10;;;;;;5031716;28;20203;-58
2022/02/11 11:36:10;;;;;;;2.90;2.70;;;23.90;58.20;;;;;;5031659;28;20220;-56
2022/02/11 11:38:49;;;;;;;2.90;2.70;;;23.90;58.20;;;;;;5012160;28;20243;-56
2022/02/11 11:41:25;;;;;;;2.90;2.70;;;23.90;58.20;;;;;;5011825;28;20250;-56
2022/02/11 11:43:57;;;;;;;3.08;2.88;;;23.90;58.20;;;;;;5020209;28;20188;-56
2022/02/11 11:46:32;;;;;;;2.70;2.50;;;23.80;58.20;;;;;;5040609;28;20288;-57
2022/02/11 11:49:11;;;;;;;3.30;3.00;;;23.80;58.20;;;;;;5051484;28;20205;-57
2022/02/11 11:52:07;;;;;;;2.90;2.70;;;23.80;58.20;;;;;;5047064;28;20192;-56
2022/02/11 11:54:38;;;;;;;2.60;2.40;;;23.80;58.20;;;;;;5030864;28;20204;-60
2022/02/11 11:57:10;;;;;;;2.33;2.13;;;23.80;58.20;;;;;;5031440;28;20219;-58
2022/02/11 11:59:44;;;;;;;2.50;2.30;;;23.80;58.30;;;;;;5031373;28;20674;-58
2022/02/11 12:02:19;;;;;;;3.20;2.90;;;23.80;58.30;;;;;;5031655;28;20196;-57
2022/02/11 12:04:54;;;;;;;2.72;2.53;;;23.80;58.30;;;;;;5031330;28;20199;-57
2022/02/11 12:07:25;;;;;;;2.60;2.40;;;23.80;58.30;;;;;;5031089;28;20228;-57
2022/02/11 12:09:57;;;;;;;2.90;2.60;;;23.80;58.30;;;;;;5031135;28;20656;-58
2022/02/11 12:12:29;;;;;;;2.90;2.70;;;23.70;58.20;;;;;;5031122;28;20197;-57
2022/02/11 12:15:02;;;;;;;2.55;2.35;;;23.70;58.20;;;;;;5030928;28;20200;-57
2022/02/11 12:17:33;;;;;;;2.38;2.17;;;23.70;58.20;;;;;;5048566;28;20245;-58
2022/02/11 12:20:07;;;;;;;2.78;2.58;;;23.70;58.30;;;;;;5032334;28;20192;-57
2022/02/11 12:22:37;;;;;;;2.58;2.38;;;23.70;58.30;;;;;;5020191;28;20709;-57
2022/02/11 12:27:57;;;;;;;2.83;2.60;;;23.70;58.30;;;;;;5030610;28;20285;-59
2022/02/11 12:30:28;;;;;;;2.60;2.40;;;23.60;58.20;;;;;;5030729;28;20275;-58
2022/02/11 12:33:00;;;;;;;2.55;2.35;;;23.70;58.30;;;;;;5030990;28;20234;-58
2022/02/11 12:35:37;;;;;;;3.03;2.60;;;23.60;58.30;;;;;;5030476;28;20680;-57
2022/02/11 12:38:08;;;;;;;2.50;2.30;;;23.60;58.30;;;;;;5030223;28;20204;-57
2022/02/11 12:40:41;;;;;;;2.50;2.30;;;23.60;58.30;;;;;;5020374;28;20197;-60
2022/02/11 12:43:13;;;;;;;2.58;2.38;;;23.60;58.30;;;;;;5022193;28;20223;-58
2022/02/11 12:45:45;;;;;;;2.67;2.47;;;23.60;58.30;;;;;;5021416;28;20566;-57
2022/02/11 12:48:16;;;;;;;2.63;2.42;;;23.60;58.30;;;;;;5027617;28;20227;-58
2022/02/11 12:50:53;;;;;;;2.50;2.30;;;23.60;58.30;;;;;;5030539;28;20261;-55
2022/02/11 12:53:27;;;;;;;2.42;2.22;;;23.60;58.30;;;;;;5016036;28;20193;-57
2022/02/11 12:55:58;;;;;;;2.50;2.30;;;23.50;58.30;;;;;;5010485;28;20227;-58
2022/02/11 12:58:29;;;;;;;2.38;2.17;;;23.50;58.30;;;;;;5010466;28;20303;-56
2022/02/11 13:00:59;;;;;;;2.42;2.20;;;23.50;58.30;;;;;;5010622;28;20271;-56
2022/02/11 13:03:33;;;;;;;2.50;2.28;;;23.50;58.30;;;;;;5010453;28;20205;-54
2022/02/11 13:06:06;;;;;;;2.00;1.90;;;23.50;58.30;;;;;;5010123;28;20688;-57
2022/02/11 13:08:37;;;;;;;2.50;2.30;;;23.50;58.30;;;;;;5025275;28;20309;-57
2022/02/11 13:11:08;;;;;;;2.20;2.00;;;23.50;58.30;;;;;;5030053;28;20674;-57
2022/02/11 13:13:39;;;;;;;2.70;2.50;;;23.40;58.30;;;;;;5029640;28;20196;-57
2022/02/11 13:16:09;;;;;;;2.15;2.03;;;23.50;58.40;;;;;;5036873;28;20226;-55
2022/02/11 13:18:42;;;;;;;2.45;2.22;;;23.40;58.90;;;;;;5050140;28;20200;-57
2022/02/11 13:21:16;;;;;;;2.60;2.40;;;23.40;58.30;;;;;;5050219;28;20191;-57
2022/02/11 13:23:50;;;;;;;2.22;2.10;;;23.40;58.40;;;;;;5033332;28;20193;-58
2022/02/11 13:26:20;;;;;;;2.30;2.10;;;23.40;58.30;;;;;;5029481;28;20212;-57
2022/02/11 13:28:53;;;;;;;2.33;2.13;;;23.40;58.30;;;;;;5029458;28;20200;-57
2022/02/11 13:31:23;;;;;;;2.40;2.20;;;23.40;58.30;;;;;;5029269;28;20200;-56
2022/02/11 13:34:11;;;;;;;1.92;1.83;;;23.40;58.40;;;;;;5029093;28;20775;-58
2022/02/11 13:36:48;;;;;;;2.20;2.00;;;23.40;58.40;;;;;;5029185;28;20247;-58
2022/02/11 13:39:32;;;;;;;2.58;2.38;;;23.40;58.40;;;;;;5028730;28;20913;-57
2022/02/11 13:42:14;;;;;;;2.03;1.92;;;23.40;58.40;;;;;;5029507;28;20200;-56
2022/02/11 13:45:01;;;;;;;2.30;2.10;;;23.40;58.30;;;;;;5013890;28;20660;-59
2022/02/11 13:47:33;;;;;;;2.30;2.10;;;23.40;58.30;;;;;;5046004;28;20235;-57
2022/02/11 13:50:07;;;;;;;2.20;2.05;;;23.30;58.30;;;;;;5049155;28;20241;-58
2022/02/11 13:53:16;;;;;;;2.35;2.15;;;23.30;58.30;;;;;;5044139;28;20257;-59
2022/02/11 13:55:54;;;;;;;2.38;2.17;;;23.30;58.30;;;;;;5029613;28;20242;-57
2022/02/11 13:58:25;;;;;;;2.65;2.45;;;23.30;58.30;;;;;;5029635;28;20200;-58
2022/02/11 14:00:56;;;;;;;2.22;2.03;;;23.30;58.40;;;;;;5029401;28;20702;-56
2022/02/11 14:03:27;;;;;;;2.10;1.98;;;23.30;58.40;;;;;;5029533;28;20655;-57
2022/02/11 14:06:00;;;;;;;2.30;2.10;;;23.30;58.40;;;;;;5029543;28;20216;-58
2022/02/11 14:08:45;;;;;;;2.35;2.15;;;23.20;58.30;;;;;;5028921;28;20223;-57
2022/02/11 14:11:19;;;;;;;2.58;2.38;;;23.30;58.40;;;;;;5029065;28;20257;-57
2022/02/11 14:13:50;;;;;;;2.20;2.00;;;23.20;58.30;;;;;;5029753;28;20203;-58
2022/02/11 14:16:21;;;;;;;2.45;2.25;;;23.30;58.40;;;;;;5020893;28;20732;-56
2022/02/11 14:18:52;;;;;;;1.77;1.67;;;23.20;58.30;;;;;;5049289;28;20647;-56
2022/02/11 14:21:22;;;;;;;1.90;1.80;;;23.20;58.30;;;;;;5049381;28;20199;-57
2022/02/11 14:23:55;;;;;;;2.00;1.90;;;23.20;58.40;;;;;;5035048;28;20254;-57
2022/02/11 14:26:25;;;;;;;1.98;1.85;;;23.20;58.30;;;;;;5031223;28;20220;-56
2022/02/11 14:28:56;;;;;;;2.05;1.95;;;23.20;58.40;;;;;;5033043;28;20228;-57
2022/02/11 14:31:27;;;;;;;2.08;1.88;;;23.20;58.30;;;;;;5033252;28;20192;-57
2022/02/11 14:33:57;;;;;;;2.10;1.90;;;23.20;58.30;;;;;;5033054;28;20571;-57
2022/02/11 14:36:28;;;;;;;1.70;1.60;;;23.20;58.30;;;;;;5032750;28;20215;-57
2022/02/11 14:39:00;;;;;;;2.10;2.00;;;23.20;58.30;;;;;;5031689;28;20200;-56
2022/02/11 14:41:50;;;;;;;1.85;1.75;;;23.20;58.40;;;;;;5032577;28;20648;-57
2022/02/11 14:44:21;;;;;;;1.65;1.55;;;23.20;58.40;;;;;;5020720;28;20188;-57
2022/02/11 14:46:59;;;;;;;1.92;1.83;;;23.10;58.30;;;;;;5029522;28;20219;-56
2022/02/11 14:49:30;;;;;;;2.15;1.90;;;23.20;58.40;;;;;;5013142;28;20298;-56
2022/02/11 14:52:02;;;;;;;1.92;1.83;;;23.10;58.40;;;;;;5012835;28;20197;-57
2022/02/11 14:54:35;;;;;;;2.10;1.90;;;23.10;58.40;;;;;;5029709;28;20192;-57
2022/02/11 14:57:07;;;;;;;2.05;1.88;;;23.10;58.40;;;;;;5032500;28;20289;-57
2022/02/11 14:59:38;;;;;;;4.65;2.10;;;23.10;58.40;;;;;;5032913;28;20206;-57
2022/02/11 15:02:10;;;;;;;2.83;2.00;;;23.10;58.40;;;;;;5032731;28;20652;-60
2022/02/11 15:04:41;;;;;;;2.17;1.98;;;23.10;58.40;;;;;;5032408;28;20192;-55
2022/02/11 15:07:12;;;;;;;2.95;1.80;;;23.10;58.40;;;;;;5032248;28;20215;-56
2022/02/11 15:09:45;;;;;;;3.45;2.10;;;23.10;58.50;;;;;;5032224;28;20207;-54
2022/02/11 15:12:16;;;;;;;2.00;1.90;;;23.10;58.40;;;;;;5031919;28;20401;-57
2022/02/11 15:14:47;;;;;;;2.05;1.58;;;23.00;58.40;;;;;;5032052;28;20196;-58
2022/02/11 15:17:17;;;;;;;1.70;1.60;;;23.10;58.40;;;;;;5048247;28;20266;-57
2022/02/11 15:19:48;;;;;;;2.08;1.42;;;23.10;58.50;;;;;;5051571;28;20664;-56
2022/02/11 15:22:19;;;;;;;1.88;1.77;;;23.00;58.40;;;;;;5051176;28;20192;-55
2022/02/11 15:24:51;;;;;;;2.13;1.92;;;23.10;58.40;;;;;;5033907;28;20196;-57
2022/02/11 15:27:22;;;;;;;1.95;1.85;;;23.00;58.40;;;;;;5031406;28;20228;-57
2022/02/11 15:29:52;;;;;;;1.67;1.58;;;23.00;58.40;;;;;;5031445;28;20192;-57
2022/02/11 15:32:23;;;;;;;2.65;1.88;;;23.00;58.40;;;;;;5031935;28;20262;-56
2022/02/11 15:34:53;;;;;;;2.05;1.85;;;23.00;58.50;;;;;;5032047;28;20204;-58
2022/02/11 15:37:24;;;;;;;1.60;1.50;;;23.00;58.50;;;;;;5031561;28;20630;-56
2022/02/11 15:39:57;;;;;;;2.05;1.70;;;23.00;58.50;;;;;;5031158;28;20196;-57
2022/02/11 15:42:27;;;;;;;2.28;1.98;;;23.00;58.50;;;;;;5031577;28;20254;-56
2022/02/11 15:44:58;;;;;;;1.67;1.58;;;23.00;58.50;;;;;;5014771;28;20280;-55
2022/02/11 15:47:28;;;;;;;2.00;1.77;;;23.00;58.50;;;;;;5046799;28;20231;-58
2022/02/11 15:50:00;;;;;;;2.13;1.50;;;23.00;58.60;;;;;;5051411;28;20202;-57
2022/02/11 15:52:30;;;;;;;1.60;1.50;;;23.00;58.50;;;;;;5051524;28;20273;-56
2022/02/11 15:55:03;;;;;;;2.60;1.90;;;22.90;58.40;;;;;;5033678;28;20335;-55
2022/02/11 15:57:33;;;;;;;2.45;1.65;;;23.00;58.50;;;;;;5031324;28;20634;-54
2022/02/11 16:00:04;;;;;;;1.73;1.60;;;23.00;58.50;;;;;;5031414;28;20713;-55
2022/02/11 16:02:35;;;;;;;2.38;1.70;;;22.90;58.40;;;;;;5031387;28;20223;-57
2022/02/11 16:05:06;;;;;;;1.80;1.70;;;22.90;58.40;;;;;;5031583;28;20207;-56
2022/02/11 16:07:41;;;;;;;1.73;1.63;;;22.90;58.40;;;;;;5031713;28;20231;-55
2022/02/11 16:10:13;;;;;;;1.73;1.63;;;22.90;58.40;;;;;;5030717;28;20195;-57
2022/02/11 16:12:45;;;;;;;1.83;1.73;;;22.90;58.40;;;;;;5031356;28;20196;-54
2022/02/11 16:15:16;;;;;;;1.70;1.60;;;22.90;58.40;;;;;;5030918;28;20192;-57
2022/02/11 16:20:30;;;;;;;1.80;1.70;;;22.90;58.40;;;;;;5010992;28;20838;-55
2022/02/11 16:23:01;;;;;;;2.55;1.63;;;22.90;58.40;;;;;;5011074;28;20197;-57
2022/02/11 16:25:34;;;;;;;1.63;1.52;;;22.90;58.40;;;;;;5030036;28;20204;-56